<?xml version="1.0" encoding="UTF-8"?>
<gpx xmlns="http://www.topografix.com/GPX/1/1" xmlns:xsi="http://www.w3.org/2001/XMLSchema-instance" version="1.1" xsi:schemaLocation="http://www.topografix.com/GPX/1/1 http://www.topografix.com/GPX/1/1/gpx.xsd">
  <metadata>
    <name>North East Triathlon 2022 - Olympic Aquabike</name>
  </metadata>
  <trk>
    <name>North East Triathlon 2022 - Olympic Aquabike</name>
    <trkseg>
      <trkpt lat="39.593934" lon="-75.945705">
        <ele>2.391511</ele>
        <time>2024-08-18T08:00:00.000Z</time>
      </trkpt>
      <trkpt lat="39.593873" lon="-75.944841">
        <ele>2.391518</ele>
        <time>2024-08-18T08:00:07.000Z</time>
      </trkpt>
      <trkpt lat="39.593826" lon="-75.943918">
        <ele>3.0069</ele>
        <time>2024-08-18T08:00:15.000Z</time>
      </trkpt>
      <trkpt lat="39.593648" lon="-75.941509">
        <ele>5.965464</ele>
        <time>2024-08-18T08:00:36.000Z</time>
      </trkpt>
      <trkpt lat="39.593506" lon="-75.941523">
        <ele>6.257877</ele>
        <time>2024-08-18T08:00:38.000Z</time>
      </trkpt>
      <trkpt lat="39.59292" lon="-75.941586">
        <ele>7.662934</ele>
        <time>2024-08-18T08:00:45.000Z</time>
      </trkpt>
      <trkpt lat="39.59283" lon="-75.941587">
        <ele>7.893413</ele>
        <time>2024-08-18T08:00:46.000Z</time>
      </trkpt>
      <trkpt lat="39.592325" lon="-75.941661">
        <ele>9.257642</ele>
        <time>2024-08-18T08:00:52.000Z</time>
      </trkpt>
      <trkpt lat="39.592222" lon="-75.941694">
        <ele>9.796207</ele>
        <time>2024-08-18T08:00:53.000Z</time>
      </trkpt>
      <trkpt lat="39.592191" lon="-75.941416">
        <ele>10.910083</ele>
        <time>2024-08-18T08:00:55.000Z</time>
      </trkpt>
      <trkpt lat="39.592164" lon="-75.941128">
        <ele>12.030123</ele>
        <time>2024-08-18T08:00:57.000Z</time>
      </trkpt>
      <trkpt lat="39.592127" lon="-75.94086">
        <ele>13.106538</ele>
        <time>2024-08-18T08:00:59.000Z</time>
      </trkpt>
      <trkpt lat="39.592095" lon="-75.940588">
        <ele>14.171487</ele>
        <time>2024-08-18T08:01:01.000Z</time>
      </trkpt>
      <trkpt lat="39.592047" lon="-75.940323">
        <ele>15.213502</ele>
        <time>2024-08-18T08:01:03.000Z</time>
      </trkpt>
      <trkpt lat="39.591892" lon="-75.939143">
        <ele>19.73487</ele>
        <time>2024-08-18T08:01:13.000Z</time>
      </trkpt>
      <trkpt lat="39.59184" lon="-75.93861">
        <ele>21.778534</ele>
        <time>2024-08-18T08:01:18.000Z</time>
      </trkpt>
      <trkpt lat="39.591769" lon="-75.938252">
        <ele>23.095016</ele>
        <time>2024-08-18T08:01:21.000Z</time>
      </trkpt>
      <trkpt lat="39.591363" lon="-75.937404">
        <ele>26.682704</ele>
        <time>2024-08-18T08:01:30.000Z</time>
      </trkpt>
      <trkpt lat="39.591007" lon="-75.936897">
        <ele>27.700764</ele>
        <time>2024-08-18T08:01:36.000Z</time>
      </trkpt>
      <trkpt lat="39.58992" lon="-75.93567">
        <ele>30.076676</ele>
        <time>2024-08-18T08:01:52.000Z</time>
      </trkpt>
      <trkpt lat="39.589808" lon="-75.935544">
        <ele>30.061483</ele>
        <time>2024-08-18T08:01:54.000Z</time>
      </trkpt>
      <trkpt lat="39.589424" lon="-75.935138">
        <ele>30.013538</ele>
        <time>2024-08-18T08:02:00.000Z</time>
      </trkpt>
      <trkpt lat="39.589329" lon="-75.935028">
        <ele>30.000054</ele>
        <time>2024-08-18T08:02:01.000Z</time>
      </trkpt>
      <trkpt lat="39.588884" lon="-75.934561">
        <ele>29.944697</ele>
        <time>2024-08-18T08:02:07.000Z</time>
      </trkpt>
      <trkpt lat="39.588618" lon="-75.934292">
        <ele>29.741658</ele>
        <time>2024-08-18T08:02:11.000Z</time>
      </trkpt>
      <trkpt lat="39.588427" lon="-75.934139">
        <ele>29.361931</ele>
        <time>2024-08-18T08:02:13.000Z</time>
      </trkpt>
      <trkpt lat="39.588366" lon="-75.934089">
        <ele>29.221383</ele>
        <time>2024-08-18T08:02:14.000Z</time>
      </trkpt>
      <trkpt lat="39.588098" lon="-75.933893">
        <ele>28.681681</ele>
        <time>2024-08-18T08:02:17.000Z</time>
      </trkpt>
      <trkpt lat="39.587591" lon="-75.933502">
        <ele>27.62704</ele>
        <time>2024-08-18T08:02:24.000Z</time>
      </trkpt>
      <trkpt lat="39.587248" lon="-75.933258">
        <ele>26.962408</ele>
        <time>2024-08-18T08:02:28.000Z</time>
      </trkpt>
      <trkpt lat="39.585694" lon="-75.93201">
        <ele>25.58912</ele>
        <time>2024-08-18T08:02:48.000Z</time>
      </trkpt>
      <trkpt lat="39.585214" lon="-75.931502">
        <ele>26.364414</ele>
        <time>2024-08-18T08:02:55.000Z</time>
      </trkpt>
      <trkpt lat="39.58498" lon="-75.931193">
        <ele>26.874411</ele>
        <time>2024-08-18T08:02:59.000Z</time>
      </trkpt>
      <trkpt lat="39.584542" lon="-75.930448">
        <ele>27.998869</ele>
        <time>2024-08-18T08:03:07.000Z</time>
      </trkpt>
      <trkpt lat="39.583679" lon="-75.928653">
        <ele>32.316745</ele>
        <time>2024-08-18T08:03:25.000Z</time>
      </trkpt>
      <trkpt lat="39.583227" lon="-75.927472">
        <ele>34.787026</ele>
        <time>2024-08-18T08:03:36.000Z</time>
      </trkpt>
      <trkpt lat="39.582567" lon="-75.925962">
        <ele>37.664824</ele>
        <time>2024-08-18T08:03:51.000Z</time>
      </trkpt>
      <trkpt lat="39.582412" lon="-75.925701">
        <ele>37.995638</ele>
        <time>2024-08-18T08:03:54.000Z</time>
      </trkpt>
      <trkpt lat="39.581716" lon="-75.924834">
        <ele>39.284089</ele>
        <time>2024-08-18T08:04:05.000Z</time>
      </trkpt>
      <trkpt lat="39.580872" lon="-75.923819">
        <ele>41.275848</ele>
        <time>2024-08-18T08:04:18.000Z</time>
      </trkpt>
      <trkpt lat="39.579946" lon="-75.922842">
        <ele>43.846393</ele>
        <time>2024-08-18T08:04:31.000Z</time>
      </trkpt>
      <trkpt lat="39.578502" lon="-75.919985">
        <ele>52.136702</ele>
        <time>2024-08-18T08:05:00.000Z</time>
      </trkpt>
      <trkpt lat="39.577986" lon="-75.918819">
        <ele>54.357947</ele>
        <time>2024-08-18T08:05:12.000Z</time>
      </trkpt>
      <trkpt lat="39.577569" lon="-75.917992">
        <ele>54.438641</ele>
        <time>2024-08-18T08:05:20.000Z</time>
      </trkpt>
      <trkpt lat="39.577131" lon="-75.916917">
        <ele>54.4411</ele>
        <time>2024-08-18T08:05:30.000Z</time>
      </trkpt>
      <trkpt lat="39.577056" lon="-75.916652">
        <ele>54.290891</ele>
        <time>2024-08-18T08:05:32.000Z</time>
      </trkpt>
      <trkpt lat="39.576598" lon="-75.91518">
        <ele>53.411947</ele>
        <time>2024-08-18T08:05:46.000Z</time>
      </trkpt>
      <trkpt lat="39.576186" lon="-75.914227">
        <ele>53.687676</ele>
        <time>2024-08-18T08:05:55.000Z</time>
      </trkpt>
      <trkpt lat="39.575918" lon="-75.913867">
        <ele>53.971966</ele>
        <time>2024-08-18T08:05:59.000Z</time>
      </trkpt>
      <trkpt lat="39.57511" lon="-75.913365">
        <ele>54.656167</ele>
        <time>2024-08-18T08:06:09.000Z</time>
      </trkpt>
      <trkpt lat="39.574672" lon="-75.913181">
        <ele>55.086765</ele>
        <time>2024-08-18T08:06:14.000Z</time>
      </trkpt>
      <trkpt lat="39.574209" lon="-75.913099">
        <ele>55.541862</ele>
        <time>2024-08-18T08:06:19.000Z</time>
      </trkpt>
      <trkpt lat="39.573736" lon="-75.913153">
        <ele>55.993788</ele>
        <time>2024-08-18T08:06:24.000Z</time>
      </trkpt>
      <trkpt lat="39.573327" lon="-75.913295">
        <ele>55.944974</ele>
        <time>2024-08-18T08:06:29.000Z</time>
      </trkpt>
      <trkpt lat="39.572662" lon="-75.913753">
        <ele>53.851411</ele>
        <time>2024-08-18T08:06:37.000Z</time>
      </trkpt>
      <trkpt lat="39.571286" lon="-75.91433">
        <ele>48.88545</ele>
        <time>2024-08-18T08:06:53.000Z</time>
      </trkpt>
      <trkpt lat="39.570866" lon="-75.914456">
        <ele>46.964024</ele>
        <time>2024-08-18T08:06:58.000Z</time>
      </trkpt>
      <trkpt lat="39.570291" lon="-75.914438">
        <ele>44.389302</ele>
        <time>2024-08-18T08:07:04.000Z</time>
      </trkpt>
      <trkpt lat="39.570243" lon="-75.914438">
        <ele>44.139702</ele>
        <time>2024-08-18T08:07:05.000Z</time>
      </trkpt>
      <trkpt lat="39.568884" lon="-75.914277">
        <ele>38.689236</ele>
        <time>2024-08-18T08:07:20.000Z</time>
      </trkpt>
      <trkpt lat="39.567588" lon="-75.914172">
        <ele>34.434471</ele>
        <time>2024-08-18T08:07:34.000Z</time>
      </trkpt>
      <trkpt lat="39.567304" lon="-75.914195">
        <ele>33.721022</ele>
        <time>2024-08-18T08:07:37.000Z</time>
      </trkpt>
      <trkpt lat="39.566447" lon="-75.914593">
        <ele>31.504952</ele>
        <time>2024-08-18T08:07:47.000Z</time>
      </trkpt>
      <trkpt lat="39.566306" lon="-75.914656">
        <ele>31.622796</ele>
        <time>2024-08-18T08:07:49.000Z</time>
      </trkpt>
      <trkpt lat="39.566003" lon="-75.914676">
        <ele>31.879211</ele>
        <time>2024-08-18T08:07:52.000Z</time>
      </trkpt>
      <trkpt lat="39.565626" lon="-75.914679">
        <ele>32.188023</ele>
        <time>2024-08-18T08:07:56.000Z</time>
      </trkpt>
      <trkpt lat="39.565297" lon="-75.914648">
        <ele>32.457934</ele>
        <time>2024-08-18T08:08:00.000Z</time>
      </trkpt>
      <trkpt lat="39.564055" lon="-75.914549">
        <ele>34.90579</ele>
        <time>2024-08-18T08:08:14.000Z</time>
      </trkpt>
      <trkpt lat="39.563487" lon="-75.914505">
        <ele>36.6167</ele>
        <time>2024-08-18T08:08:20.000Z</time>
      </trkpt>
      <trkpt lat="39.56271" lon="-75.91428">
        <ele>38.702972</ele>
        <time>2024-08-18T08:08:29.000Z</time>
      </trkpt>
      <trkpt lat="39.56253" lon="-75.914201">
        <ele>39.003057</ele>
        <time>2024-08-18T08:08:31.000Z</time>
      </trkpt>
      <trkpt lat="39.562331" lon="-75.914021">
        <ele>39.344322</ele>
        <time>2024-08-18T08:08:34.000Z</time>
      </trkpt>
      <trkpt lat="39.562105" lon="-75.913612">
        <ele>39.926168</ele>
        <time>2024-08-18T08:08:38.000Z</time>
      </trkpt>
      <trkpt lat="39.562054" lon="-75.91326">
        <ele>40.352155</ele>
        <time>2024-08-18T08:08:41.000Z</time>
      </trkpt>
      <trkpt lat="39.562063" lon="-75.912029">
        <ele>41.072348</ele>
        <time>2024-08-18T08:08:52.000Z</time>
      </trkpt>
      <trkpt lat="39.562135" lon="-75.910718">
        <ele>41.027391</ele>
        <time>2024-08-18T08:09:03.000Z</time>
      </trkpt>
      <trkpt lat="39.562122" lon="-75.910525">
        <ele>41.020478</ele>
        <time>2024-08-18T08:09:05.000Z</time>
      </trkpt>
      <trkpt lat="39.562083" lon="-75.910157">
        <ele>41.004552</ele>
        <time>2024-08-18T08:09:08.000Z</time>
      </trkpt>
      <trkpt lat="39.561975" lon="-75.908849">
        <ele>40.922697</ele>
        <time>2024-08-18T08:09:19.000Z</time>
      </trkpt>
      <trkpt lat="39.561769" lon="-75.908126">
        <ele>40.873955</ele>
        <time>2024-08-18T08:09:26.000Z</time>
      </trkpt>
      <trkpt lat="39.561504" lon="-75.907411">
        <ele>39.219721</ele>
        <time>2024-08-18T08:09:33.000Z</time>
      </trkpt>
      <trkpt lat="39.561526" lon="-75.906884">
        <ele>37.966869</ele>
        <time>2024-08-18T08:09:38.000Z</time>
      </trkpt>
      <trkpt lat="39.561646" lon="-75.906579">
        <ele>37.115802</ele>
        <time>2024-08-18T08:09:41.000Z</time>
      </trkpt>
      <trkpt lat="39.562402" lon="-75.905501">
        <ele>33.61325</ele>
        <time>2024-08-18T08:09:53.000Z</time>
      </trkpt>
      <trkpt lat="39.563017" lon="-75.90433">
        <ele>30.242524</ele>
        <time>2024-08-18T08:10:05.000Z</time>
      </trkpt>
      <trkpt lat="39.563062" lon="-75.903716">
        <ele>29.413115</ele>
        <time>2024-08-18T08:10:10.000Z</time>
      </trkpt>
      <trkpt lat="39.56289" lon="-75.901413">
        <ele>28.232733</ele>
        <time>2024-08-18T08:10:30.000Z</time>
      </trkpt>
      <trkpt lat="39.562804" lon="-75.901013">
        <ele>28.464036</ele>
        <time>2024-08-18T08:10:34.000Z</time>
      </trkpt>
      <trkpt lat="39.562682" lon="-75.900739">
        <ele>28.638282</ele>
        <time>2024-08-18T08:10:37.000Z</time>
      </trkpt>
      <trkpt lat="39.561952" lon="-75.899887">
        <ele>29.345167</ele>
        <time>2024-08-18T08:10:48.000Z</time>
      </trkpt>
      <trkpt lat="39.560812" lon="-75.897966">
        <ele>34.86984</ele>
        <time>2024-08-18T08:11:09.000Z</time>
      </trkpt>
      <trkpt lat="39.560378" lon="-75.897133">
        <ele>38.3644</ele>
        <time>2024-08-18T08:11:18.000Z</time>
      </trkpt>
      <trkpt lat="39.558955" lon="-75.894046">
        <ele>51.36761</ele>
        <time>2024-08-18T08:11:49.000Z</time>
      </trkpt>
      <trkpt lat="39.558743" lon="-75.894282">
        <ele>52.113184</ele>
        <time>2024-08-18T08:11:52.000Z</time>
      </trkpt>
      <trkpt lat="39.558352" lon="-75.894704">
        <ele>53.470625</ele>
        <time>2024-08-18T08:11:58.000Z</time>
      </trkpt>
      <trkpt lat="39.557934" lon="-75.895456">
        <ele>55.347935</ele>
        <time>2024-08-18T08:12:06.000Z</time>
      </trkpt>
      <trkpt lat="39.557905" lon="-75.895498">
        <ele>55.431697</ele>
        <time>2024-08-18T08:12:06.000Z</time>
      </trkpt>
      <trkpt lat="39.557558" lon="-75.896125">
        <ele>55.73619</ele>
        <time>2024-08-18T08:12:13.000Z</time>
      </trkpt>
      <trkpt lat="39.557544" lon="-75.896141">
        <ele>55.727729</ele>
        <time>2024-08-18T08:12:13.000Z</time>
      </trkpt>
      <trkpt lat="39.557413" lon="-75.89635">
        <ele>55.58277</ele>
        <time>2024-08-18T08:12:15.000Z</time>
      </trkpt>
      <trkpt lat="39.556979" lon="-75.896935">
        <ele>55.142463</ele>
        <time>2024-08-18T08:12:22.000Z</time>
      </trkpt>
      <trkpt lat="39.556869" lon="-75.897094">
        <ele>55.041513</ele>
        <time>2024-08-18T08:12:24.000Z</time>
      </trkpt>
      <trkpt lat="39.556649" lon="-75.897428">
        <ele>54.801562</ele>
        <time>2024-08-18T08:12:28.000Z</time>
      </trkpt>
      <trkpt lat="39.555891" lon="-75.898504">
        <ele>56.422632</ele>
        <time>2024-08-18T08:12:40.000Z</time>
      </trkpt>
      <trkpt lat="39.555818" lon="-75.89863">
        <ele>56.611363</ele>
        <time>2024-08-18T08:12:41.000Z</time>
      </trkpt>
      <trkpt lat="39.555371" lon="-75.899138">
        <ele>57.530255</ele>
        <time>2024-08-18T08:12:48.000Z</time>
      </trkpt>
      <trkpt lat="39.554659" lon="-75.899462">
        <ele>60.342291</ele>
        <time>2024-08-18T08:12:56.000Z</time>
      </trkpt>
      <trkpt lat="39.554419" lon="-75.899683">
        <ele>61.41322</ele>
        <time>2024-08-18T08:12:59.000Z</time>
      </trkpt>
      <trkpt lat="39.554298" lon="-75.900063">
        <ele>62.596349</ele>
        <time>2024-08-18T08:13:03.000Z</time>
      </trkpt>
      <trkpt lat="39.554335" lon="-75.90051">
        <ele>63.878534</ele>
        <time>2024-08-18T08:13:07.000Z</time>
      </trkpt>
      <trkpt lat="39.554319" lon="-75.900685">
        <ele>64.369773</ele>
        <time>2024-08-18T08:13:09.000Z</time>
      </trkpt>
      <trkpt lat="39.554215" lon="-75.900872">
        <ele>64.911886</ele>
        <time>2024-08-18T08:13:11.000Z</time>
      </trkpt>
      <trkpt lat="39.553423" lon="-75.902049">
        <ele>68.670859</ele>
        <time>2024-08-18T08:13:24.000Z</time>
      </trkpt>
      <trkpt lat="39.553398" lon="-75.902094">
        <ele>68.85264</ele>
        <time>2024-08-18T08:13:24.000Z</time>
      </trkpt>
      <trkpt lat="39.553046" lon="-75.902592">
        <ele>70.244329</ele>
        <time>2024-08-18T08:13:30.000Z</time>
      </trkpt>
      <trkpt lat="39.553012" lon="-75.902618">
        <ele>70.307857</ele>
        <time>2024-08-18T08:13:30.000Z</time>
      </trkpt>
      <trkpt lat="39.552951" lon="-75.902731">
        <ele>70.512421</ele>
        <time>2024-08-18T08:13:31.000Z</time>
      </trkpt>
      <trkpt lat="39.552556" lon="-75.903338">
        <ele>71.691332</ele>
        <time>2024-08-18T08:13:38.000Z</time>
      </trkpt>
      <trkpt lat="39.552409" lon="-75.903598">
        <ele>72.170122</ele>
        <time>2024-08-18T08:13:41.000Z</time>
      </trkpt>
      <trkpt lat="39.552306" lon="-75.903801">
        <ele>72.521283</ele>
        <time>2024-08-18T08:13:43.000Z</time>
      </trkpt>
      <trkpt lat="39.55228" lon="-75.903884">
        <ele>72.675954</ele>
        <time>2024-08-18T08:13:44.000Z</time>
      </trkpt>
      <trkpt lat="39.55223" lon="-75.904095">
        <ele>72.988129</ele>
        <time>2024-08-18T08:13:46.000Z</time>
      </trkpt>
      <trkpt lat="39.551977" lon="-75.905876">
        <ele>72.436006</ele>
        <time>2024-08-18T08:14:02.000Z</time>
      </trkpt>
      <trkpt lat="39.551821" lon="-75.906626">
        <ele>71.996719</ele>
        <time>2024-08-18T08:14:09.000Z</time>
      </trkpt>
      <trkpt lat="39.551626" lon="-75.907031">
        <ele>72.045751</ele>
        <time>2024-08-18T08:14:13.000Z</time>
      </trkpt>
      <trkpt lat="39.551384" lon="-75.907216">
        <ele>72.083802</ele>
        <time>2024-08-18T08:14:16.000Z</time>
      </trkpt>
      <trkpt lat="39.550571" lon="-75.907585">
        <ele>72.195711</ele>
        <time>2024-08-18T08:14:26.000Z</time>
      </trkpt>
      <trkpt lat="39.550181" lon="-75.907774">
        <ele>72.068837</ele>
        <time>2024-08-18T08:14:31.000Z</time>
      </trkpt>
      <trkpt lat="39.550153" lon="-75.907787">
        <ele>72.025856</ele>
        <time>2024-08-18T08:14:31.000Z</time>
      </trkpt>
      <trkpt lat="39.549612" lon="-75.908019">
        <ele>71.366226</ele>
        <time>2024-08-18T08:14:37.000Z</time>
      </trkpt>
      <trkpt lat="39.549435" lon="-75.908152">
        <ele>71.132282</ele>
        <time>2024-08-18T08:14:39.000Z</time>
      </trkpt>
      <trkpt lat="39.549006" lon="-75.908839">
        <ele>70.315439</ele>
        <time>2024-08-18T08:14:47.000Z</time>
      </trkpt>
      <trkpt lat="39.548627" lon="-75.909446">
        <ele>68.304343</ele>
        <time>2024-08-18T08:14:54.000Z</time>
      </trkpt>
      <trkpt lat="39.548069" lon="-75.910408">
        <ele>64.429356</ele>
        <time>2024-08-18T08:15:04.000Z</time>
      </trkpt>
      <trkpt lat="39.547792" lon="-75.910692">
        <ele>62.975273</ele>
        <time>2024-08-18T08:15:08.000Z</time>
      </trkpt>
      <trkpt lat="39.547237" lon="-75.911132">
        <ele>61.153444</ele>
        <time>2024-08-18T08:15:15.000Z</time>
      </trkpt>
      <trkpt lat="39.546409" lon="-75.911825">
        <ele>58.680734</ele>
        <time>2024-08-18T08:15:26.000Z</time>
      </trkpt>
      <trkpt lat="39.54484" lon="-75.913173">
        <ele>54.567216</ele>
        <time>2024-08-18T08:15:47.000Z</time>
      </trkpt>
      <trkpt lat="39.544061" lon="-75.914058">
        <ele>49.742404</ele>
        <time>2024-08-18T08:15:59.000Z</time>
      </trkpt>
      <trkpt lat="39.542642" lon="-75.915632">
        <ele>40.758031</ele>
        <time>2024-08-18T08:16:20.000Z</time>
      </trkpt>
      <trkpt lat="39.541838" lon="-75.916542">
        <ele>37.186991</ele>
        <time>2024-08-18T08:16:32.000Z</time>
      </trkpt>
      <trkpt lat="39.541434" lon="-75.917049">
        <ele>38.287131</ele>
        <time>2024-08-18T08:16:38.000Z</time>
      </trkpt>
      <trkpt lat="39.541192" lon="-75.91734">
        <ele>38.911536</ele>
        <time>2024-08-18T08:16:42.000Z</time>
      </trkpt>
      <trkpt lat="39.540849" lon="-75.917792">
        <ele>39.86728</ele>
        <time>2024-08-18T08:16:47.000Z</time>
      </trkpt>
      <trkpt lat="39.539871" lon="-75.918918">
        <ele>46.546055</ele>
        <time>2024-08-18T08:17:02.000Z</time>
      </trkpt>
      <trkpt lat="39.540496" lon="-75.919492">
        <ele>50.830432</ele>
        <time>2024-08-18T08:17:11.000Z</time>
      </trkpt>
      <trkpt lat="39.540849" lon="-75.919942">
        <ele>52.388799</ele>
        <time>2024-08-18T08:17:17.000Z</time>
      </trkpt>
      <trkpt lat="39.541003" lon="-75.92022">
        <ele>53.231609</ele>
        <time>2024-08-18T08:17:20.000Z</time>
      </trkpt>
      <trkpt lat="39.541064" lon="-75.920712">
        <ele>54.475359</ele>
        <time>2024-08-18T08:17:24.000Z</time>
      </trkpt>
      <trkpt lat="39.541054" lon="-75.92104">
        <ele>55.284334</ele>
        <time>2024-08-18T08:17:27.000Z</time>
      </trkpt>
      <trkpt lat="39.540798" lon="-75.921738">
        <ele>56.078524</ele>
        <time>2024-08-18T08:17:34.000Z</time>
      </trkpt>
      <trkpt lat="39.540758" lon="-75.921944">
        <ele>55.877596</ele>
        <time>2024-08-18T08:17:36.000Z</time>
      </trkpt>
      <trkpt lat="39.54075" lon="-75.922093">
        <ele>55.751449</ele>
        <time>2024-08-18T08:17:37.000Z</time>
      </trkpt>
      <trkpt lat="39.540814" lon="-75.922376">
        <ele>55.464137</ele>
        <time>2024-08-18T08:17:40.000Z</time>
      </trkpt>
      <trkpt lat="39.540847" lon="-75.922532">
        <ele>55.312858</ele>
        <time>2024-08-18T08:17:41.000Z</time>
      </trkpt>
      <trkpt lat="39.540895" lon="-75.922705">
        <ele>55.152423</ele>
        <time>2024-08-18T08:17:43.000Z</time>
      </trkpt>
      <trkpt lat="39.540952" lon="-75.92289">
        <ele>54.954482</ele>
        <time>2024-08-18T08:17:45.000Z</time>
      </trkpt>
      <trkpt lat="39.541059" lon="-75.923272">
        <ele>54.581244</ele>
        <time>2024-08-18T08:17:48.000Z</time>
      </trkpt>
      <trkpt lat="39.541379" lon="-75.924529">
        <ele>50.997657</ele>
        <time>2024-08-18T08:17:59.000Z</time>
      </trkpt>
      <trkpt lat="39.541585" lon="-75.925242">
        <ele>48.342276</ele>
        <time>2024-08-18T08:18:06.000Z</time>
      </trkpt>
      <trkpt lat="39.54182" lon="-75.926072">
        <ele>45.361657</ele>
        <time>2024-08-18T08:18:14.000Z</time>
      </trkpt>
      <trkpt lat="39.541907" lon="-75.926412">
        <ele>44.1686</ele>
        <time>2024-08-18T08:18:17.000Z</time>
      </trkpt>
      <trkpt lat="39.541971" lon="-75.926675">
        <ele>43.298066</ele>
        <time>2024-08-18T08:18:19.000Z</time>
      </trkpt>
      <trkpt lat="39.542055" lon="-75.926984">
        <ele>42.241521</ele>
        <time>2024-08-18T08:18:22.000Z</time>
      </trkpt>
      <trkpt lat="39.542537" lon="-75.928003">
        <ele>38.558463</ele>
        <time>2024-08-18T08:18:32.000Z</time>
      </trkpt>
      <trkpt lat="39.542684" lon="-75.928313">
        <ele>38.296493</ele>
        <time>2024-08-18T08:18:35.000Z</time>
      </trkpt>
      <trkpt lat="39.542964" lon="-75.928807">
        <ele>37.854912</ele>
        <time>2024-08-18T08:18:40.000Z</time>
      </trkpt>
      <trkpt lat="39.543033" lon="-75.92918">
        <ele>37.588264</ele>
        <time>2024-08-18T08:18:43.000Z</time>
      </trkpt>
      <trkpt lat="39.543054" lon="-75.930079">
        <ele>36.934155</ele>
        <time>2024-08-18T08:18:51.000Z</time>
      </trkpt>
      <trkpt lat="39.543403" lon="-75.930925">
        <ele>37.275423</ele>
        <time>2024-08-18T08:18:59.000Z</time>
      </trkpt>
      <trkpt lat="39.543602" lon="-75.931268">
        <ele>37.43626</ele>
        <time>2024-08-18T08:19:03.000Z</time>
      </trkpt>
      <trkpt lat="39.544145" lon="-75.931863">
        <ele>37.774547</ele>
        <time>2024-08-18T08:19:11.000Z</time>
      </trkpt>
      <trkpt lat="39.544459" lon="-75.932281">
        <ele>37.907015</ele>
        <time>2024-08-18T08:19:16.000Z</time>
      </trkpt>
      <trkpt lat="39.544551" lon="-75.932538">
        <ele>37.97132</ele>
        <time>2024-08-18T08:19:18.000Z</time>
      </trkpt>
      <trkpt lat="39.544626" lon="-75.932931">
        <ele>38.059907</ele>
        <time>2024-08-18T08:19:21.000Z</time>
      </trkpt>
      <trkpt lat="39.544593" lon="-75.933199">
        <ele>38.12164</ele>
        <time>2024-08-18T08:19:23.000Z</time>
      </trkpt>
      <trkpt lat="39.544217" lon="-75.934344">
        <ele>38.556188</ele>
        <time>2024-08-18T08:19:34.000Z</time>
      </trkpt>
      <trkpt lat="39.544151" lon="-75.934803">
        <ele>38.840978</ele>
        <time>2024-08-18T08:19:38.000Z</time>
      </trkpt>
      <trkpt lat="39.544002" lon="-75.935316">
        <ele>39.17996</ele>
        <time>2024-08-18T08:19:43.000Z</time>
      </trkpt>
      <trkpt lat="39.543728" lon="-75.9358">
        <ele>39.546282</ele>
        <time>2024-08-18T08:19:48.000Z</time>
      </trkpt>
      <trkpt lat="39.543535" lon="-75.93622">
        <ele>39.979501</ele>
        <time>2024-08-18T08:19:52.000Z</time>
      </trkpt>
      <trkpt lat="39.543565" lon="-75.936545">
        <ele>40.40003</ele>
        <time>2024-08-18T08:19:55.000Z</time>
      </trkpt>
      <trkpt lat="39.544741" lon="-75.937943">
        <ele>43.133279</ele>
        <time>2024-08-18T08:20:13.000Z</time>
      </trkpt>
      <trkpt lat="39.544916" lon="-75.938153">
        <ele>43.646119</ele>
        <time>2024-08-18T08:20:16.000Z</time>
      </trkpt>
      <trkpt lat="39.545236" lon="-75.938509">
        <ele>44.500075</ele>
        <time>2024-08-18T08:20:21.000Z</time>
      </trkpt>
      <trkpt lat="39.545539" lon="-75.938879">
        <ele>45.360712</ele>
        <time>2024-08-18T08:20:26.000Z</time>
      </trkpt>
      <trkpt lat="39.545848" lon="-75.939299">
        <ele>46.278203</ele>
        <time>2024-08-18T08:20:31.000Z</time>
      </trkpt>
      <trkpt lat="39.545977" lon="-75.939623">
        <ele>46.828697</ele>
        <time>2024-08-18T08:20:34.000Z</time>
      </trkpt>
      <trkpt lat="39.546117" lon="-75.940131">
        <ele>47.622961</ele>
        <time>2024-08-18T08:20:39.000Z</time>
      </trkpt>
      <trkpt lat="39.546128" lon="-75.940296">
        <ele>47.87269</ele>
        <time>2024-08-18T08:20:40.000Z</time>
      </trkpt>
      <trkpt lat="39.546148" lon="-75.94056">
        <ele>48.271041</ele>
        <time>2024-08-18T08:20:42.000Z</time>
      </trkpt>
      <trkpt lat="39.546098" lon="-75.940918">
        <ele>48.81763</ele>
        <time>2024-08-18T08:20:45.000Z</time>
      </trkpt>
      <trkpt lat="39.545876" lon="-75.941716">
        <ele>49.971114</ele>
        <time>2024-08-18T08:20:52.000Z</time>
      </trkpt>
      <trkpt lat="39.545753" lon="-75.942299">
        <ele>50.269379</ele>
        <time>2024-08-18T08:20:57.000Z</time>
      </trkpt>
      <trkpt lat="39.545741" lon="-75.942433">
        <ele>50.342965</ele>
        <time>2024-08-18T08:20:58.000Z</time>
      </trkpt>
      <trkpt lat="39.545767" lon="-75.942749">
        <ele>50.498361</ele>
        <time>2024-08-18T08:21:01.000Z</time>
      </trkpt>
      <trkpt lat="39.545835" lon="-75.942952">
        <ele>50.613488</ele>
        <time>2024-08-18T08:21:03.000Z</time>
      </trkpt>
      <trkpt lat="39.546108" lon="-75.943348">
        <ele>50.877249</ele>
        <time>2024-08-18T08:21:08.000Z</time>
      </trkpt>
      <trkpt lat="39.546384" lon="-75.943602">
        <ele>51.044225</ele>
        <time>2024-08-18T08:21:12.000Z</time>
      </trkpt>
      <trkpt lat="39.546824" lon="-75.944045">
        <ele>49.831089</ele>
        <time>2024-08-18T08:21:18.000Z</time>
      </trkpt>
      <trkpt lat="39.547277" lon="-75.944561">
        <ele>48.500135</ele>
        <time>2024-08-18T08:21:25.000Z</time>
      </trkpt>
      <trkpt lat="39.547494" lon="-75.944761">
        <ele>47.924575</ele>
        <time>2024-08-18T08:21:28.000Z</time>
      </trkpt>
      <trkpt lat="39.547836" lon="-75.944912">
        <ele>47.085819</ele>
        <time>2024-08-18T08:21:32.000Z</time>
      </trkpt>
      <trkpt lat="39.548033" lon="-75.945062">
        <ele>46.195591</ele>
        <time>2024-08-18T08:21:35.000Z</time>
      </trkpt>
      <trkpt lat="39.548072" lon="-75.945113">
        <ele>45.890164</ele>
        <time>2024-08-18T08:21:36.000Z</time>
      </trkpt>
      <trkpt lat="39.548663" lon="-75.945862">
        <ele>42.470215</ele>
        <time>2024-08-18T08:21:45.000Z</time>
      </trkpt>
      <trkpt lat="39.54898" lon="-75.946328">
        <ele>40.444797</ele>
        <time>2024-08-18T08:21:50.000Z</time>
      </trkpt>
      <trkpt lat="39.549017" lon="-75.946773">
        <ele>39.263354</ele>
        <time>2024-08-18T08:21:54.000Z</time>
      </trkpt>
      <trkpt lat="39.548866" lon="-75.948171">
        <ele>36.449789</ele>
        <time>2024-08-18T08:22:06.000Z</time>
      </trkpt>
      <trkpt lat="39.550086" lon="-75.948211">
        <ele>34.868361</ele>
        <time>2024-08-18T08:22:20.000Z</time>
      </trkpt>
      <trkpt lat="39.551509" lon="-75.94841">
        <ele>34.569681</ele>
        <time>2024-08-18T08:22:36.000Z</time>
      </trkpt>
      <trkpt lat="39.551734" lon="-75.948445">
        <ele>34.468751</ele>
        <time>2024-08-18T08:22:39.000Z</time>
      </trkpt>
      <trkpt lat="39.552787" lon="-75.948728">
        <ele>33.995796</ele>
        <time>2024-08-18T08:22:51.000Z</time>
      </trkpt>
      <trkpt lat="39.553475" lon="-75.948969">
        <ele>32.469889</ele>
        <time>2024-08-18T08:22:59.000Z</time>
      </trkpt>
      <trkpt lat="39.554521" lon="-75.949327">
        <ele>29.446953</ele>
        <time>2024-08-18T08:23:11.000Z</time>
      </trkpt>
      <trkpt lat="39.554619" lon="-75.949363">
        <ele>29.123928</ele>
        <time>2024-08-18T08:23:12.000Z</time>
      </trkpt>
      <trkpt lat="39.556041" lon="-75.949857">
        <ele>21.723143</ele>
        <time>2024-08-18T08:23:28.000Z</time>
      </trkpt>
      <trkpt lat="39.55724" lon="-75.950071">
        <ele>16.024425</ele>
        <time>2024-08-18T08:23:41.000Z</time>
      </trkpt>
      <trkpt lat="39.55792" lon="-75.950091">
        <ele>13.117976</ele>
        <time>2024-08-18T08:23:49.000Z</time>
      </trkpt>
      <trkpt lat="39.558715" lon="-75.950017">
        <ele>11.219707</ele>
        <time>2024-08-18T08:23:58.000Z</time>
      </trkpt>
      <trkpt lat="39.559028" lon="-75.949957">
        <ele>10.921181</ele>
        <time>2024-08-18T08:24:02.000Z</time>
      </trkpt>
      <trkpt lat="39.559591" lon="-75.949804">
        <ele>10.377304</ele>
        <time>2024-08-18T08:24:08.000Z</time>
      </trkpt>
      <trkpt lat="39.559845" lon="-75.949719">
        <ele>10.121763</ele>
        <time>2024-08-18T08:24:11.000Z</time>
      </trkpt>
      <trkpt lat="39.560179" lon="-75.949587">
        <ele>9.997557</ele>
        <time>2024-08-18T08:24:15.000Z</time>
      </trkpt>
      <trkpt lat="39.560527" lon="-75.949481">
        <ele>10.121804</ele>
        <time>2024-08-18T08:24:19.000Z</time>
      </trkpt>
      <trkpt lat="39.560947" lon="-75.949326">
        <ele>10.277437</ele>
        <time>2024-08-18T08:24:24.000Z</time>
      </trkpt>
      <trkpt lat="39.560981" lon="-75.949309">
        <ele>10.289209</ele>
        <time>2024-08-18T08:24:24.000Z</time>
      </trkpt>
      <trkpt lat="39.561203" lon="-75.949228">
        <ele>10.377102</ele>
        <time>2024-08-18T08:24:27.000Z</time>
      </trkpt>
      <trkpt lat="39.561357" lon="-75.949174">
        <ele>10.432494</ele>
        <time>2024-08-18T08:24:29.000Z</time>
      </trkpt>
      <trkpt lat="39.561663" lon="-75.949075">
        <ele>10.54016</ele>
        <time>2024-08-18T08:24:33.000Z</time>
      </trkpt>
      <trkpt lat="39.562541" lon="-75.948767">
        <ele>11.840483</ele>
        <time>2024-08-18T08:24:43.000Z</time>
      </trkpt>
      <trkpt lat="39.563179" lon="-75.948536">
        <ele>12.864647</ele>
        <time>2024-08-18T08:24:50.000Z</time>
      </trkpt>
      <trkpt lat="39.563369" lon="-75.948466">
        <ele>13.189523</ele>
        <time>2024-08-18T08:24:52.000Z</time>
      </trkpt>
      <trkpt lat="39.56349" lon="-75.94842">
        <ele>13.381113</ele>
        <time>2024-08-18T08:24:53.000Z</time>
      </trkpt>
      <trkpt lat="39.566231" lon="-75.947463">
        <ele>21.660576</ele>
        <time>2024-08-18T08:25:25.000Z</time>
      </trkpt>
      <trkpt lat="39.566583" lon="-75.94734">
        <ele>22.57794</ele>
        <time>2024-08-18T08:25:29.000Z</time>
      </trkpt>
      <trkpt lat="39.566662" lon="-75.947311">
        <ele>22.779278</ele>
        <time>2024-08-18T08:25:30.000Z</time>
      </trkpt>
      <trkpt lat="39.566798" lon="-75.947267">
        <ele>23.118246</ele>
        <time>2024-08-18T08:25:32.000Z</time>
      </trkpt>
      <trkpt lat="39.569106" lon="-75.946449">
        <ele>22.458192</ele>
        <time>2024-08-18T08:25:59.000Z</time>
      </trkpt>
      <trkpt lat="39.570589" lon="-75.945917">
        <ele>18.721847</ele>
        <time>2024-08-18T08:26:16.000Z</time>
      </trkpt>
      <trkpt lat="39.571838" lon="-75.945467">
        <ele>15.74407</ele>
        <time>2024-08-18T08:26:30.000Z</time>
      </trkpt>
      <trkpt lat="39.572061" lon="-75.945406">
        <ele>15.203245</ele>
        <time>2024-08-18T08:26:33.000Z</time>
      </trkpt>
      <trkpt lat="39.572467" lon="-75.945247">
        <ele>14.335117</ele>
        <time>2024-08-18T08:26:38.000Z</time>
      </trkpt>
      <trkpt lat="39.573382" lon="-75.944928">
        <ele>12.490197</ele>
        <time>2024-08-18T08:26:49.000Z</time>
      </trkpt>
      <trkpt lat="39.5749" lon="-75.94442">
        <ele>10.668972</ele>
        <time>2024-08-18T08:27:06.000Z</time>
      </trkpt>
      <trkpt lat="39.576717" lon="-75.94394">
        <ele>11.054662</ele>
        <time>2024-08-18T08:27:27.000Z</time>
      </trkpt>
      <trkpt lat="39.578537" lon="-75.943605">
        <ele>12.590535</ele>
        <time>2024-08-18T08:27:47.000Z</time>
      </trkpt>
      <trkpt lat="39.57888" lon="-75.943553">
        <ele>12.871845</ele>
        <time>2024-08-18T08:27:51.000Z</time>
      </trkpt>
      <trkpt lat="39.580194" lon="-75.943382">
        <ele>13.663713</ele>
        <time>2024-08-18T08:28:06.000Z</time>
      </trkpt>
      <trkpt lat="39.581334" lon="-75.943218">
        <ele>14.109001</ele>
        <time>2024-08-18T08:28:19.000Z</time>
      </trkpt>
      <trkpt lat="39.583295" lon="-75.942951">
        <ele>13.353968</ele>
        <time>2024-08-18T08:28:41.000Z</time>
      </trkpt>
      <trkpt lat="39.584567" lon="-75.942758">
        <ele>11.276023</ele>
        <time>2024-08-18T08:28:55.000Z</time>
      </trkpt>
      <trkpt lat="39.585331" lon="-75.942657">
        <ele>10.707507</ele>
        <time>2024-08-18T08:29:04.000Z</time>
      </trkpt>
      <trkpt lat="39.586082" lon="-75.94257">
        <ele>10.165853</ele>
        <time>2024-08-18T08:29:12.000Z</time>
      </trkpt>
      <trkpt lat="39.586407" lon="-75.942531">
        <ele>10.003055</ele>
        <time>2024-08-18T08:29:16.000Z</time>
      </trkpt>
      <trkpt lat="39.588048" lon="-75.942337">
        <ele>13.579042</ele>
        <time>2024-08-18T08:29:34.000Z</time>
      </trkpt>
      <trkpt lat="39.58899" lon="-75.942144">
        <ele>14.027346</ele>
        <time>2024-08-18T08:29:45.000Z</time>
      </trkpt>
      <trkpt lat="39.589385" lon="-75.94211">
        <ele>14.114027</ele>
        <time>2024-08-18T08:29:49.000Z</time>
      </trkpt>
      <trkpt lat="39.589531" lon="-75.942069">
        <ele>14.144584</ele>
        <time>2024-08-18T08:29:51.000Z</time>
      </trkpt>
      <trkpt lat="39.590214" lon="-75.941997">
        <ele>13.973655</ele>
        <time>2024-08-18T08:29:59.000Z</time>
      </trkpt>
      <trkpt lat="39.590341" lon="-75.941973">
        <ele>13.8516</ele>
        <time>2024-08-18T08:30:00.000Z</time>
      </trkpt>
      <trkpt lat="39.590646" lon="-75.941929">
        <ele>13.559914</ele>
        <time>2024-08-18T08:30:03.000Z</time>
      </trkpt>
      <trkpt lat="39.591522" lon="-75.941573">
        <ele>12.660636</ele>
        <time>2024-08-18T08:30:13.000Z</time>
      </trkpt>
      <trkpt lat="39.592152" lon="-75.941431">
        <ele>13.847788</ele>
        <time>2024-08-18T08:30:20.000Z</time>
      </trkpt>
      <trkpt lat="39.592186" lon="-75.941419">
        <ele>13.981723</ele>
        <time>2024-08-18T08:30:20.000Z</time>
      </trkpt>
      <trkpt lat="39.592168" lon="-75.941131">
        <ele>14.651312</ele>
        <time>2024-08-18T08:30:22.000Z</time>
      </trkpt>
      <trkpt lat="39.592122" lon="-75.940847">
        <ele>15.294811</ele>
        <time>2024-08-18T08:30:24.000Z</time>
      </trkpt>
      <trkpt lat="39.592081" lon="-75.94059">
        <ele>15.931462</ele>
        <time>2024-08-18T08:30:26.000Z</time>
      </trkpt>
      <trkpt lat="39.592063" lon="-75.940317">
        <ele>16.554414</ele>
        <time>2024-08-18T08:30:28.000Z</time>
      </trkpt>
      <trkpt lat="39.591895" lon="-75.939152">
        <ele>20.078306</ele>
        <time>2024-08-18T08:30:38.000Z</time>
      </trkpt>
      <trkpt lat="39.59183" lon="-75.93861">
        <ele>22.054441</ele>
        <time>2024-08-18T08:30:43.000Z</time>
      </trkpt>
      <trkpt lat="39.591779" lon="-75.938256">
        <ele>23.327425</ele>
        <time>2024-08-18T08:30:46.000Z</time>
      </trkpt>
      <trkpt lat="39.591353" lon="-75.937405">
        <ele>26.566253</ele>
        <time>2024-08-18T08:30:55.000Z</time>
      </trkpt>
      <trkpt lat="39.591011" lon="-75.936896">
        <ele>27.646055</ele>
        <time>2024-08-18T08:31:01.000Z</time>
      </trkpt>
      <trkpt lat="39.589919" lon="-75.935665">
        <ele>30.003073</ele>
        <time>2024-08-18T08:31:17.000Z</time>
      </trkpt>
      <trkpt lat="39.589801" lon="-75.935538">
        <ele>30.007621</ele>
        <time>2024-08-18T08:31:19.000Z</time>
      </trkpt>
      <trkpt lat="39.589419" lon="-75.935144">
        <ele>30.022025</ele>
        <time>2024-08-18T08:31:24.000Z</time>
      </trkpt>
      <trkpt lat="39.589321" lon="-75.935018">
        <ele>30.026064</ele>
        <time>2024-08-18T08:31:26.000Z</time>
      </trkpt>
      <trkpt lat="39.588883" lon="-75.934559">
        <ele>30.042687</ele>
        <time>2024-08-18T08:31:32.000Z</time>
      </trkpt>
      <trkpt lat="39.588622" lon="-75.934303">
        <ele>29.703816</ele>
        <time>2024-08-18T08:31:36.000Z</time>
      </trkpt>
      <trkpt lat="39.588441" lon="-75.934147">
        <ele>29.32585</ele>
        <time>2024-08-18T08:31:38.000Z</time>
      </trkpt>
      <trkpt lat="39.588365" lon="-75.934096">
        <ele>29.185929</ele>
        <time>2024-08-18T08:31:39.000Z</time>
      </trkpt>
      <trkpt lat="39.588094" lon="-75.933892">
        <ele>28.648713</ele>
        <time>2024-08-18T08:31:42.000Z</time>
      </trkpt>
      <trkpt lat="39.587587" lon="-75.9335">
        <ele>27.59892</ele>
        <time>2024-08-18T08:31:49.000Z</time>
      </trkpt>
      <trkpt lat="39.587246" lon="-75.933246">
        <ele>26.93733</ele>
        <time>2024-08-18T08:31:53.000Z</time>
      </trkpt>
      <trkpt lat="39.585692" lon="-75.932003">
        <ele>25.525937</ele>
        <time>2024-08-18T08:32:13.000Z</time>
      </trkpt>
      <trkpt lat="39.585219" lon="-75.931502">
        <ele>26.415423</ele>
        <time>2024-08-18T08:32:20.000Z</time>
      </trkpt>
      <trkpt lat="39.584985" lon="-75.9312">
        <ele>26.886434</ele>
        <time>2024-08-18T08:32:24.000Z</time>
      </trkpt>
      <trkpt lat="39.584551" lon="-75.930447">
        <ele>27.924925</ele>
        <time>2024-08-18T08:32:32.000Z</time>
      </trkpt>
      <trkpt lat="39.583678" lon="-75.928645">
        <ele>32.32297</ele>
        <time>2024-08-18T08:32:50.000Z</time>
      </trkpt>
      <trkpt lat="39.583224" lon="-75.927467">
        <ele>34.779223</ele>
        <time>2024-08-18T08:33:01.000Z</time>
      </trkpt>
      <trkpt lat="39.582569" lon="-75.925957">
        <ele>37.636595</ele>
        <time>2024-08-18T08:33:16.000Z</time>
      </trkpt>
      <trkpt lat="39.582421" lon="-75.925698">
        <ele>37.974218</ele>
        <time>2024-08-18T08:33:19.000Z</time>
      </trkpt>
      <trkpt lat="39.581723" lon="-75.924822">
        <ele>39.289231</ele>
        <time>2024-08-18T08:33:30.000Z</time>
      </trkpt>
      <trkpt lat="39.580875" lon="-75.923834">
        <ele>41.273055</ele>
        <time>2024-08-18T08:33:43.000Z</time>
      </trkpt>
      <trkpt lat="39.579957" lon="-75.922843">
        <ele>43.887837</ele>
        <time>2024-08-18T08:33:56.000Z</time>
      </trkpt>
      <trkpt lat="39.578508" lon="-75.92">
        <ele>52.172876</ele>
        <time>2024-08-18T08:34:25.000Z</time>
      </trkpt>
      <trkpt lat="39.577997" lon="-75.918822">
        <ele>54.27427</ele>
        <time>2024-08-18T08:34:37.000Z</time>
      </trkpt>
      <trkpt lat="39.577574" lon="-75.917998">
        <ele>54.43564</ele>
        <time>2024-08-18T08:34:45.000Z</time>
      </trkpt>
      <trkpt lat="39.577142" lon="-75.916901">
        <ele>54.43528</ele>
        <time>2024-08-18T08:34:56.000Z</time>
      </trkpt>
      <trkpt lat="39.577059" lon="-75.916663">
        <ele>54.281832</ele>
        <time>2024-08-18T08:34:58.000Z</time>
      </trkpt>
      <trkpt lat="39.576609" lon="-75.915167">
        <ele>53.383895</ele>
        <time>2024-08-18T08:35:12.000Z</time>
      </trkpt>
      <trkpt lat="39.576182" lon="-75.914222">
        <ele>53.720701</ele>
        <time>2024-08-18T08:35:21.000Z</time>
      </trkpt>
      <trkpt lat="39.575917" lon="-75.913859">
        <ele>53.964826</ele>
        <time>2024-08-18T08:35:25.000Z</time>
      </trkpt>
      <trkpt lat="39.575115" lon="-75.913361">
        <ele>54.614127</ele>
        <time>2024-08-18T08:35:35.000Z</time>
      </trkpt>
      <trkpt lat="39.574677" lon="-75.913188">
        <ele>55.091661</ele>
        <time>2024-08-18T08:35:40.000Z</time>
      </trkpt>
      <trkpt lat="39.574217" lon="-75.913091">
        <ele>55.59636</ele>
        <time>2024-08-18T08:35:45.000Z</time>
      </trkpt>
      <trkpt lat="39.573735" lon="-75.913147">
        <ele>56.09754</ele>
        <time>2024-08-18T08:35:50.000Z</time>
      </trkpt>
      <trkpt lat="39.573314" lon="-75.913293">
        <ele>55.764654</ele>
        <time>2024-08-18T08:35:55.000Z</time>
      </trkpt>
      <trkpt lat="39.572668" lon="-75.913755">
        <ele>53.827528</ele>
        <time>2024-08-18T08:36:03.000Z</time>
      </trkpt>
      <trkpt lat="39.571277" lon="-75.914319">
        <ele>48.87413</ele>
        <time>2024-08-18T08:36:19.000Z</time>
      </trkpt>
      <trkpt lat="39.57086" lon="-75.914451">
        <ele>46.951266</ele>
        <time>2024-08-18T08:36:24.000Z</time>
      </trkpt>
      <trkpt lat="39.570291" lon="-75.914441">
        <ele>44.374571</ele>
        <time>2024-08-18T08:36:30.000Z</time>
      </trkpt>
      <trkpt lat="39.570236" lon="-75.914438">
        <ele>44.124795</ele>
        <time>2024-08-18T08:36:31.000Z</time>
      </trkpt>
      <trkpt lat="39.568892" lon="-75.914269">
        <ele>38.679639</ele>
        <time>2024-08-18T08:36:46.000Z</time>
      </trkpt>
      <trkpt lat="39.567593" lon="-75.914156">
        <ele>34.439362</ele>
        <time>2024-08-18T08:37:00.000Z</time>
      </trkpt>
      <trkpt lat="39.567308" lon="-75.914201">
        <ele>33.690878</ele>
        <time>2024-08-18T08:37:03.000Z</time>
      </trkpt>
      <trkpt lat="39.566442" lon="-75.914608">
        <ele>31.668928</ele>
        <time>2024-08-18T08:37:13.000Z</time>
      </trkpt>
      <trkpt lat="39.56632" lon="-75.914652">
        <ele>31.760139</ele>
        <time>2024-08-18T08:37:14.000Z</time>
      </trkpt>
      <trkpt lat="39.566007" lon="-75.914673">
        <ele>31.958587</ele>
        <time>2024-08-18T08:37:17.000Z</time>
      </trkpt>
      <trkpt lat="39.565627" lon="-75.914685">
        <ele>32.197591</ele>
        <time>2024-08-18T08:37:21.000Z</time>
      </trkpt>
      <trkpt lat="39.565288" lon="-75.914647">
        <ele>32.406512</ele>
        <time>2024-08-18T08:37:25.000Z</time>
      </trkpt>
      <trkpt lat="39.564053" lon="-75.914547">
        <ele>34.944406</ele>
        <time>2024-08-18T08:37:39.000Z</time>
      </trkpt>
      <trkpt lat="39.563485" lon="-75.914502">
        <ele>36.638072</ele>
        <time>2024-08-18T08:37:45.000Z</time>
      </trkpt>
      <trkpt lat="39.562706" lon="-75.914281">
        <ele>38.607531</ele>
        <time>2024-08-18T08:37:54.000Z</time>
      </trkpt>
      <trkpt lat="39.562523" lon="-75.914203">
        <ele>38.936014</ele>
        <time>2024-08-18T08:37:56.000Z</time>
      </trkpt>
      <trkpt lat="39.562343" lon="-75.914026">
        <ele>39.309534</ele>
        <time>2024-08-18T08:37:59.000Z</time>
      </trkpt>
      <trkpt lat="39.562109" lon="-75.913603">
        <ele>39.946406</ele>
        <time>2024-08-18T08:38:03.000Z</time>
      </trkpt>
      <trkpt lat="39.562042" lon="-75.913259">
        <ele>40.412693</ele>
        <time>2024-08-18T08:38:06.000Z</time>
      </trkpt>
      <trkpt lat="39.562056" lon="-75.912017">
        <ele>41.046068</ele>
        <time>2024-08-18T08:38:17.000Z</time>
      </trkpt>
      <trkpt lat="39.562137" lon="-75.91073">
        <ele>41.002762</ele>
        <time>2024-08-18T08:38:28.000Z</time>
      </trkpt>
      <trkpt lat="39.562127" lon="-75.910532">
        <ele>40.996125</ele>
        <time>2024-08-18T08:38:30.000Z</time>
      </trkpt>
      <trkpt lat="39.562079" lon="-75.910171">
        <ele>40.991395</ele>
        <time>2024-08-18T08:38:33.000Z</time>
      </trkpt>
      <trkpt lat="39.561977" lon="-75.90885">
        <ele>40.98836</ele>
        <time>2024-08-18T08:38:44.000Z</time>
      </trkpt>
      <trkpt lat="39.561772" lon="-75.90812">
        <ele>40.964148</ele>
        <time>2024-08-18T08:38:51.000Z</time>
      </trkpt>
      <trkpt lat="39.561509" lon="-75.9074">
        <ele>39.132616</ele>
        <time>2024-08-18T08:38:58.000Z</time>
      </trkpt>
      <trkpt lat="39.561525" lon="-75.906877">
        <ele>37.936444</ele>
        <time>2024-08-18T08:39:02.000Z</time>
      </trkpt>
      <trkpt lat="39.561647" lon="-75.906571">
        <ele>37.123894</ele>
        <time>2024-08-18T08:39:05.000Z</time>
      </trkpt>
      <trkpt lat="39.562404" lon="-75.905491">
        <ele>33.631833</ele>
        <time>2024-08-18T08:39:18.000Z</time>
      </trkpt>
      <trkpt lat="39.563026" lon="-75.904325">
        <ele>30.139868</ele>
        <time>2024-08-18T08:39:30.000Z</time>
      </trkpt>
      <trkpt lat="39.563061" lon="-75.903715">
        <ele>29.473813</ele>
        <time>2024-08-18T08:39:35.000Z</time>
      </trkpt>
      <trkpt lat="39.562888" lon="-75.901421">
        <ele>28.289551</ele>
        <time>2024-08-18T08:39:55.000Z</time>
      </trkpt>
      <trkpt lat="39.562804" lon="-75.901021">
        <ele>28.482074</ele>
        <time>2024-08-18T08:39:59.000Z</time>
      </trkpt>
      <trkpt lat="39.562682" lon="-75.900749">
        <ele>28.627114</ele>
        <time>2024-08-18T08:40:02.000Z</time>
      </trkpt>
      <trkpt lat="39.561964" lon="-75.899888">
        <ele>29.42377</ele>
        <time>2024-08-18T08:40:13.000Z</time>
      </trkpt>
      <trkpt lat="39.560814" lon="-75.897969">
        <ele>34.940216</ele>
        <time>2024-08-18T08:40:34.000Z</time>
      </trkpt>
      <trkpt lat="39.560377" lon="-75.897133">
        <ele>38.378371</ele>
        <time>2024-08-18T08:40:43.000Z</time>
      </trkpt>
      <trkpt lat="39.55895" lon="-75.894045">
        <ele>51.216594</ele>
        <time>2024-08-18T08:41:14.000Z</time>
      </trkpt>
      <trkpt lat="39.55874" lon="-75.894278">
        <ele>52.023611</ele>
        <time>2024-08-18T08:41:17.000Z</time>
      </trkpt>
      <trkpt lat="39.558346" lon="-75.894705">
        <ele>53.492898</ele>
        <time>2024-08-18T08:41:23.000Z</time>
      </trkpt>
      <trkpt lat="39.55793" lon="-75.89546">
        <ele>55.524905</ele>
        <time>2024-08-18T08:41:31.000Z</time>
      </trkpt>
      <trkpt lat="39.557918" lon="-75.895487">
        <ele>55.615558</ele>
        <time>2024-08-18T08:41:31.000Z</time>
      </trkpt>
      <trkpt lat="39.557566" lon="-75.896127">
        <ele>55.656129</ele>
        <time>2024-08-18T08:41:38.000Z</time>
      </trkpt>
      <trkpt lat="39.557561" lon="-75.896144">
        <ele>55.648206</ele>
        <time>2024-08-18T08:41:38.000Z</time>
      </trkpt>
      <trkpt lat="39.55741" lon="-75.896355">
        <ele>55.512464</ele>
        <time>2024-08-18T08:41:40.000Z</time>
      </trkpt>
      <trkpt lat="39.55697" lon="-75.896934">
        <ele>55.100108</ele>
        <time>2024-08-18T08:41:47.000Z</time>
      </trkpt>
      <trkpt lat="39.556884" lon="-75.897088">
        <ele>55.005585</ele>
        <time>2024-08-18T08:41:49.000Z</time>
      </trkpt>
      <trkpt lat="39.556648" lon="-75.89744">
        <ele>54.852439</ele>
        <time>2024-08-18T08:41:53.000Z</time>
      </trkpt>
      <trkpt lat="39.555887" lon="-75.898512">
        <ele>56.370089</ele>
        <time>2024-08-18T08:42:05.000Z</time>
      </trkpt>
      <trkpt lat="39.555806" lon="-75.898635">
        <ele>56.533665</ele>
        <time>2024-08-18T08:42:06.000Z</time>
      </trkpt>
      <trkpt lat="39.55537" lon="-75.899155">
        <ele>57.510224</ele>
        <time>2024-08-18T08:42:13.000Z</time>
      </trkpt>
      <trkpt lat="39.554648" lon="-75.899463">
        <ele>60.375879</ele>
        <time>2024-08-18T08:42:21.000Z</time>
      </trkpt>
      <trkpt lat="39.554426" lon="-75.899677">
        <ele>61.451715</ele>
        <time>2024-08-18T08:42:24.000Z</time>
      </trkpt>
      <trkpt lat="39.554296" lon="-75.900051">
        <ele>62.640263</ele>
        <time>2024-08-18T08:42:28.000Z</time>
      </trkpt>
      <trkpt lat="39.554343" lon="-75.900511">
        <ele>63.928312</ele>
        <time>2024-08-18T08:42:32.000Z</time>
      </trkpt>
      <trkpt lat="39.554319" lon="-75.900681">
        <ele>64.363923</ele>
        <time>2024-08-18T08:42:33.000Z</time>
      </trkpt>
      <trkpt lat="39.554225" lon="-75.900862">
        <ele>64.907463</ele>
        <time>2024-08-18T08:42:35.000Z</time>
      </trkpt>
      <trkpt lat="39.553437" lon="-75.902045">
        <ele>68.67637</ele>
        <time>2024-08-18T08:42:48.000Z</time>
      </trkpt>
      <trkpt lat="39.553398" lon="-75.902109">
        <ele>68.858616</ele>
        <time>2024-08-18T08:42:49.000Z</time>
      </trkpt>
      <trkpt lat="39.553036" lon="-75.902603">
        <ele>70.177522</ele>
        <time>2024-08-18T08:42:55.000Z</time>
      </trkpt>
      <trkpt lat="39.55301" lon="-75.902632">
        <ele>70.245547</ele>
        <time>2024-08-18T08:42:55.000Z</time>
      </trkpt>
      <trkpt lat="39.552957" lon="-75.902733">
        <ele>70.464613</ele>
        <time>2024-08-18T08:42:56.000Z</time>
      </trkpt>
      <trkpt lat="39.552566" lon="-75.903337">
        <ele>71.727006</ele>
        <time>2024-08-18T08:43:03.000Z</time>
      </trkpt>
      <trkpt lat="39.552399" lon="-75.903602">
        <ele>72.239707</ele>
        <time>2024-08-18T08:43:06.000Z</time>
      </trkpt>
      <trkpt lat="39.552302" lon="-75.903796">
        <ele>72.615739</ele>
        <time>2024-08-18T08:43:08.000Z</time>
      </trkpt>
      <trkpt lat="39.552266" lon="-75.903893">
        <ele>72.781372</ele>
        <time>2024-08-18T08:43:09.000Z</time>
      </trkpt>
      <trkpt lat="39.552219" lon="-75.904101">
        <ele>73.115633</ele>
        <time>2024-08-18T08:43:11.000Z</time>
      </trkpt>
      <trkpt lat="39.55198" lon="-75.905879">
        <ele>72.418244</ele>
        <time>2024-08-18T08:43:26.000Z</time>
      </trkpt>
      <trkpt lat="39.551826" lon="-75.90662">
        <ele>72.088714</ele>
        <time>2024-08-18T08:43:33.000Z</time>
      </trkpt>
      <trkpt lat="39.551619" lon="-75.90703">
        <ele>72.107854</ele>
        <time>2024-08-18T08:43:37.000Z</time>
      </trkpt>
      <trkpt lat="39.55138" lon="-75.907218">
        <ele>72.122727</ele>
        <time>2024-08-18T08:43:40.000Z</time>
      </trkpt>
      <trkpt lat="39.550583" lon="-75.907587">
        <ele>72.166434</ele>
        <time>2024-08-18T08:43:49.000Z</time>
      </trkpt>
      <trkpt lat="39.550172" lon="-75.907775">
        <ele>71.947698</ele>
        <time>2024-08-18T08:43:54.000Z</time>
      </trkpt>
      <trkpt lat="39.550153" lon="-75.907797">
        <ele>71.911926</ele>
        <time>2024-08-18T08:43:54.000Z</time>
      </trkpt>
      <trkpt lat="39.549616" lon="-75.908016">
        <ele>71.363027</ele>
        <time>2024-08-18T08:44:00.000Z</time>
      </trkpt>
      <trkpt lat="39.549441" lon="-75.908151">
        <ele>71.168336</ele>
        <time>2024-08-18T08:44:02.000Z</time>
      </trkpt>
      <trkpt lat="39.549003" lon="-75.908834">
        <ele>70.488624</ele>
        <time>2024-08-18T08:44:10.000Z</time>
      </trkpt>
      <trkpt lat="39.548618" lon="-75.909452">
        <ele>68.230055</ele>
        <time>2024-08-18T08:44:17.000Z</time>
      </trkpt>
      <trkpt lat="39.548068" lon="-75.910416">
        <ele>64.390288</ele>
        <time>2024-08-18T08:44:27.000Z</time>
      </trkpt>
      <trkpt lat="39.547802" lon="-75.91068">
        <ele>62.949413</ele>
        <time>2024-08-18T08:44:31.000Z</time>
      </trkpt>
      <trkpt lat="39.547239" lon="-75.911125">
        <ele>61.211035</ele>
        <time>2024-08-18T08:44:38.000Z</time>
      </trkpt>
      <trkpt lat="39.546406" lon="-75.91182">
        <ele>58.625623</ele>
        <time>2024-08-18T08:44:49.000Z</time>
      </trkpt>
      <trkpt lat="39.544841" lon="-75.91317">
        <ele>54.664471</ele>
        <time>2024-08-18T08:45:10.000Z</time>
      </trkpt>
      <trkpt lat="39.544062" lon="-75.914073">
        <ele>49.713428</ele>
        <time>2024-08-18T08:45:22.000Z</time>
      </trkpt>
      <trkpt lat="39.542645" lon="-75.915639">
        <ele>40.687944</ele>
        <time>2024-08-18T08:45:43.000Z</time>
      </trkpt>
      <trkpt lat="39.541852" lon="-75.916525">
        <ele>37.457018</ele>
        <time>2024-08-18T08:45:55.000Z</time>
      </trkpt>
      <trkpt lat="39.54142" lon="-75.917045">
        <ele>38.340695</ele>
        <time>2024-08-18T08:46:02.000Z</time>
      </trkpt>
      <trkpt lat="39.541206" lon="-75.91735">
        <ele>38.842251</ele>
        <time>2024-08-18T08:46:06.000Z</time>
      </trkpt>
      <trkpt lat="39.540855" lon="-75.917799">
        <ele>39.609953</ele>
        <time>2024-08-18T08:46:11.000Z</time>
      </trkpt>
      <trkpt lat="39.539881" lon="-75.918909">
        <ele>46.597121</ele>
        <time>2024-08-18T08:46:25.000Z</time>
      </trkpt>
      <trkpt lat="39.540488" lon="-75.919494">
        <ele>50.668672</ele>
        <time>2024-08-18T08:46:33.000Z</time>
      </trkpt>
      <trkpt lat="39.540846" lon="-75.919936">
        <ele>52.334017</ele>
        <time>2024-08-18T08:46:38.000Z</time>
      </trkpt>
      <trkpt lat="39.541001" lon="-75.920219">
        <ele>53.23471</ele>
        <time>2024-08-18T08:46:41.000Z</time>
      </trkpt>
      <trkpt lat="39.541064" lon="-75.920717">
        <ele>54.563851</ele>
        <time>2024-08-18T08:46:45.000Z</time>
      </trkpt>
      <trkpt lat="39.541057" lon="-75.921051">
        <ele>55.428365</ele>
        <time>2024-08-18T08:46:48.000Z</time>
      </trkpt>
      <trkpt lat="39.540791" lon="-75.921743">
        <ele>55.940563</ele>
        <time>2024-08-18T08:46:55.000Z</time>
      </trkpt>
      <trkpt lat="39.540764" lon="-75.921948">
        <ele>55.776085</ele>
        <time>2024-08-18T08:46:57.000Z</time>
      </trkpt>
      <trkpt lat="39.540754" lon="-75.922087">
        <ele>55.672836</ele>
        <time>2024-08-18T08:46:58.000Z</time>
      </trkpt>
      <trkpt lat="39.5408" lon="-75.92238">
        <ele>55.43769</ele>
        <time>2024-08-18T08:47:01.000Z</time>
      </trkpt>
      <trkpt lat="39.540848" lon="-75.922543">
        <ele>55.313869</ele>
        <time>2024-08-18T08:47:02.000Z</time>
      </trkpt>
      <trkpt lat="39.540898" lon="-75.9227">
        <ele>55.182559</ele>
        <time>2024-08-18T08:47:03.000Z</time>
      </trkpt>
      <trkpt lat="39.540959" lon="-75.922891">
        <ele>55.020542</ele>
        <time>2024-08-18T08:47:05.000Z</time>
      </trkpt>
      <trkpt lat="39.541066" lon="-75.923278">
        <ele>54.715063</ele>
        <time>2024-08-18T08:47:09.000Z</time>
      </trkpt>
      <trkpt lat="39.541376" lon="-75.924529">
        <ele>50.952797</ele>
        <time>2024-08-18T08:47:20.000Z</time>
      </trkpt>
      <trkpt lat="39.541582" lon="-75.925239">
        <ele>48.357732</ele>
        <time>2024-08-18T08:47:27.000Z</time>
      </trkpt>
      <trkpt lat="39.541831" lon="-75.926062">
        <ele>45.418543</ele>
        <time>2024-08-18T08:47:35.000Z</time>
      </trkpt>
      <trkpt lat="39.541917" lon="-75.926423">
        <ele>44.190409</ele>
        <time>2024-08-18T08:47:38.000Z</time>
      </trkpt>
      <trkpt lat="39.541976" lon="-75.926679">
        <ele>43.294281</ele>
        <time>2024-08-18T08:47:40.000Z</time>
      </trkpt>
      <trkpt lat="39.54204" lon="-75.926988">
        <ele>42.206676</ele>
        <time>2024-08-18T08:47:43.000Z</time>
      </trkpt>
      <trkpt lat="39.542538" lon="-75.928016">
        <ele>38.708411</ele>
        <time>2024-08-18T08:47:53.000Z</time>
      </trkpt>
      <trkpt lat="39.542685" lon="-75.928309">
        <ele>38.400945</ele>
        <time>2024-08-18T08:47:56.000Z</time>
      </trkpt>
      <trkpt lat="39.542968" lon="-75.928806">
        <ele>37.88267</ele>
        <time>2024-08-18T08:48:01.000Z</time>
      </trkpt>
      <trkpt lat="39.543023" lon="-75.929168">
        <ele>37.569717</ele>
        <time>2024-08-18T08:48:04.000Z</time>
      </trkpt>
      <trkpt lat="39.543059" lon="-75.930086">
        <ele>36.938947</ele>
        <time>2024-08-18T08:48:12.000Z</time>
      </trkpt>
      <trkpt lat="39.543401" lon="-75.930924">
        <ele>37.288543</ele>
        <time>2024-08-18T08:48:20.000Z</time>
      </trkpt>
      <trkpt lat="39.543594" lon="-75.93128">
        <ele>37.44906</ele>
        <time>2024-08-18T08:48:24.000Z</time>
      </trkpt>
      <trkpt lat="39.54415" lon="-75.931858">
        <ele>37.773928</ele>
        <time>2024-08-18T08:48:32.000Z</time>
      </trkpt>
      <trkpt lat="39.544448" lon="-75.932274">
        <ele>37.900676</ele>
        <time>2024-08-18T08:48:37.000Z</time>
      </trkpt>
      <trkpt lat="39.544552" lon="-75.932544">
        <ele>37.964715</ele>
        <time>2024-08-18T08:48:40.000Z</time>
      </trkpt>
      <trkpt lat="39.544627" lon="-75.932933">
        <ele>38.052887</ele>
        <time>2024-08-18T08:48:43.000Z</time>
      </trkpt>
      <trkpt lat="39.544585" lon="-75.933216">
        <ele>38.114354</ele>
        <time>2024-08-18T08:48:45.000Z</time>
      </trkpt>
      <trkpt lat="39.544209" lon="-75.934335">
        <ele>38.576398</ele>
        <time>2024-08-18T08:48:55.000Z</time>
      </trkpt>
      <trkpt lat="39.544158" lon="-75.934802">
        <ele>38.844015</ele>
        <time>2024-08-18T08:48:59.000Z</time>
      </trkpt>
      <trkpt lat="39.544009" lon="-75.935313">
        <ele>39.162531</ele>
        <time>2024-08-18T08:49:04.000Z</time>
      </trkpt>
      <trkpt lat="39.543738" lon="-75.935798">
        <ele>39.506749</ele>
        <time>2024-08-18T08:49:09.000Z</time>
      </trkpt>
      <trkpt lat="39.543534" lon="-75.936217">
        <ele>40.006321</ele>
        <time>2024-08-18T08:49:13.000Z</time>
      </trkpt>
      <trkpt lat="39.543558" lon="-75.936548">
        <ele>40.418393</ele>
        <time>2024-08-18T08:49:16.000Z</time>
      </trkpt>
      <trkpt lat="39.544746" lon="-75.937941">
        <ele>43.142948</ele>
        <time>2024-08-18T08:49:34.000Z</time>
      </trkpt>
      <trkpt lat="39.544921" lon="-75.938162">
        <ele>43.654819</ele>
        <time>2024-08-18T08:49:37.000Z</time>
      </trkpt>
      <trkpt lat="39.545238" lon="-75.938515">
        <ele>44.507168</ele>
        <time>2024-08-18T08:49:42.000Z</time>
      </trkpt>
      <trkpt lat="39.545534" lon="-75.938886">
        <ele>45.366179</ele>
        <time>2024-08-18T08:49:47.000Z</time>
      </trkpt>
      <trkpt lat="39.545849" lon="-75.939316">
        <ele>46.280161</ele>
        <time>2024-08-18T08:49:52.000Z</time>
      </trkpt>
      <trkpt lat="39.545978" lon="-75.939624">
        <ele>46.826222</ele>
        <time>2024-08-18T08:49:55.000Z</time>
      </trkpt>
      <trkpt lat="39.546108" lon="-75.940129">
        <ele>47.627276</ele>
        <time>2024-08-18T08:50:00.000Z</time>
      </trkpt>
      <trkpt lat="39.546137" lon="-75.940298">
        <ele>47.879141</ele>
        <time>2024-08-18T08:50:01.000Z</time>
      </trkpt>
      <trkpt lat="39.546141" lon="-75.940565">
        <ele>48.280879</ele>
        <time>2024-08-18T08:50:03.000Z</time>
      </trkpt>
      <trkpt lat="39.546102" lon="-75.940931">
        <ele>48.832144</ele>
        <time>2024-08-18T08:50:06.000Z</time>
      </trkpt>
      <trkpt lat="39.54587" lon="-75.941726">
        <ele>49.89464</ele>
        <time>2024-08-18T08:50:13.000Z</time>
      </trkpt>
      <trkpt lat="39.54576" lon="-75.942296">
        <ele>50.246484</ele>
        <time>2024-08-18T08:50:18.000Z</time>
      </trkpt>
      <trkpt lat="39.545743" lon="-75.942447">
        <ele>50.333267</ele>
        <time>2024-08-18T08:50:19.000Z</time>
      </trkpt>
      <trkpt lat="39.54575" lon="-75.942746">
        <ele>50.516557</ele>
        <time>2024-08-18T08:50:22.000Z</time>
      </trkpt>
      <trkpt lat="39.54584" lon="-75.94296">
        <ele>50.652347</ele>
        <time>2024-08-18T08:50:24.000Z</time>
      </trkpt>
      <trkpt lat="39.546108" lon="-75.943344">
        <ele>50.963493</ele>
        <time>2024-08-18T08:50:28.000Z</time>
      </trkpt>
      <trkpt lat="39.546374" lon="-75.943604">
        <ele>50.908919</ele>
        <time>2024-08-18T08:50:32.000Z</time>
      </trkpt>
      <trkpt lat="39.546816" lon="-75.944035">
        <ele>49.782495</ele>
        <time>2024-08-18T08:50:38.000Z</time>
      </trkpt>
      <trkpt lat="39.547293" lon="-75.944551">
        <ele>48.546671</ele>
        <time>2024-08-18T08:50:45.000Z</time>
      </trkpt>
      <trkpt lat="39.547504" lon="-75.944772">
        <ele>48.012245</ele>
        <time>2024-08-18T08:50:48.000Z</time>
      </trkpt>
      <trkpt lat="39.547843" lon="-75.944914">
        <ele>47.027113</ele>
        <time>2024-08-18T08:50:52.000Z</time>
      </trkpt>
      <trkpt lat="39.548032" lon="-75.945049">
        <ele>46.142714</ele>
        <time>2024-08-18T08:50:54.000Z</time>
      </trkpt>
      <trkpt lat="39.548076" lon="-75.945124">
        <ele>45.83929</ele>
        <time>2024-08-18T08:50:55.000Z</time>
      </trkpt>
      <trkpt lat="39.548664" lon="-75.945854">
        <ele>42.441814</ele>
        <time>2024-08-18T08:51:04.000Z</time>
      </trkpt>
      <trkpt lat="39.54897" lon="-75.946341">
        <ele>40.429685</ele>
        <time>2024-08-18T08:51:09.000Z</time>
      </trkpt>
      <trkpt lat="39.549019" lon="-75.94676">
        <ele>39.36772</ele>
        <time>2024-08-18T08:51:13.000Z</time>
      </trkpt>
      <trkpt lat="39.548857" lon="-75.948159">
        <ele>36.389952</ele>
        <time>2024-08-18T08:51:25.000Z</time>
      </trkpt>
      <trkpt lat="39.55009" lon="-75.948198">
        <ele>34.912306</ele>
        <time>2024-08-18T08:51:39.000Z</time>
      </trkpt>
      <trkpt lat="39.551498" lon="-75.948408">
        <ele>34.541708</ele>
        <time>2024-08-18T08:51:55.000Z</time>
      </trkpt>
      <trkpt lat="39.551732" lon="-75.94845">
        <ele>34.45803</ele>
        <time>2024-08-18T08:51:58.000Z</time>
      </trkpt>
      <trkpt lat="39.552781" lon="-75.948723">
        <ele>34.065974</ele>
        <time>2024-08-18T08:52:10.000Z</time>
      </trkpt>
      <trkpt lat="39.55348" lon="-75.948955">
        <ele>32.420027</ele>
        <time>2024-08-18T08:52:18.000Z</time>
      </trkpt>
      <trkpt lat="39.554504" lon="-75.949335">
        <ele>29.566025</ele>
        <time>2024-08-18T08:52:30.000Z</time>
      </trkpt>
      <trkpt lat="39.55462" lon="-75.949362">
        <ele>29.26105</ele>
        <time>2024-08-18T08:52:31.000Z</time>
      </trkpt>
      <trkpt lat="39.556039" lon="-75.949857">
        <ele>21.725713</ele>
        <time>2024-08-18T08:52:47.000Z</time>
      </trkpt>
      <trkpt lat="39.557254" lon="-75.950071">
        <ele>16.006094</ele>
        <time>2024-08-18T08:53:01.000Z</time>
      </trkpt>
      <trkpt lat="39.557931" lon="-75.950088">
        <ele>12.998468</ele>
        <time>2024-08-18T08:53:09.000Z</time>
      </trkpt>
      <trkpt lat="39.558709" lon="-75.950009">
        <ele>11.300771</ele>
        <time>2024-08-18T08:53:18.000Z</time>
      </trkpt>
      <trkpt lat="39.55903" lon="-75.949954">
        <ele>10.956917</ele>
        <time>2024-08-18T08:53:22.000Z</time>
      </trkpt>
      <trkpt lat="39.55959" lon="-75.9498">
        <ele>10.330437</ele>
        <time>2024-08-18T08:53:28.000Z</time>
      </trkpt>
      <trkpt lat="39.559841" lon="-75.949713">
        <ele>10.036095</ele>
        <time>2024-08-18T08:53:31.000Z</time>
      </trkpt>
      <trkpt lat="39.560181" lon="-75.949602">
        <ele>10.013466</ele>
        <time>2024-08-18T08:53:35.000Z</time>
      </trkpt>
      <trkpt lat="39.560522" lon="-75.949478">
        <ele>10.128659</ele>
        <time>2024-08-18T08:53:39.000Z</time>
      </trkpt>
      <trkpt lat="39.560936" lon="-75.949324">
        <ele>10.27297</ele>
        <time>2024-08-18T08:53:44.000Z</time>
      </trkpt>
      <trkpt lat="39.560967" lon="-75.949304">
        <ele>10.283881</ele>
        <time>2024-08-18T08:53:44.000Z</time>
      </trkpt>
      <trkpt lat="39.561219" lon="-75.949229">
        <ele>10.365369</ele>
        <time>2024-08-18T08:53:47.000Z</time>
      </trkpt>
      <trkpt lat="39.561357" lon="-75.949173">
        <ele>10.416755</ele>
        <time>2024-08-18T08:53:49.000Z</time>
      </trkpt>
      <trkpt lat="39.561646" lon="-75.949081">
        <ele>10.516573</ele>
        <time>2024-08-18T08:53:52.000Z</time>
      </trkpt>
      <trkpt lat="39.562552" lon="-75.94876">
        <ele>11.836931</ele>
        <time>2024-08-18T08:54:02.000Z</time>
      </trkpt>
      <trkpt lat="39.563179" lon="-75.948548">
        <ele>12.79332</ele>
        <time>2024-08-18T08:54:09.000Z</time>
      </trkpt>
      <trkpt lat="39.563378" lon="-75.948465">
        <ele>13.096692</ele>
        <time>2024-08-18T08:54:11.000Z</time>
      </trkpt>
      <trkpt lat="39.563495" lon="-75.948438">
        <ele>13.408398</ele>
        <time>2024-08-18T08:54:12.000Z</time>
      </trkpt>
      <trkpt lat="39.566226" lon="-75.947467">
        <ele>21.715379</ele>
        <time>2024-08-18T08:54:43.000Z</time>
      </trkpt>
      <trkpt lat="39.566574" lon="-75.947342">
        <ele>22.676082</ele>
        <time>2024-08-18T08:54:47.000Z</time>
      </trkpt>
      <trkpt lat="39.566658" lon="-75.947302">
        <ele>22.886924</ele>
        <time>2024-08-18T08:54:48.000Z</time>
      </trkpt>
      <trkpt lat="39.566789" lon="-75.947266">
        <ele>23.241906</ele>
        <time>2024-08-18T08:54:49.000Z</time>
      </trkpt>
      <trkpt lat="39.569098" lon="-75.946439">
        <ele>22.37278</ele>
        <time>2024-08-18T08:55:16.000Z</time>
      </trkpt>
      <trkpt lat="39.570594" lon="-75.945907">
        <ele>18.768859</ele>
        <time>2024-08-18T08:55:33.000Z</time>
      </trkpt>
      <trkpt lat="39.57184" lon="-75.945474">
        <ele>15.721099</ele>
        <time>2024-08-18T08:55:47.000Z</time>
      </trkpt>
      <trkpt lat="39.572067" lon="-75.945391">
        <ele>15.167563</ele>
        <time>2024-08-18T08:55:50.000Z</time>
      </trkpt>
      <trkpt lat="39.572465" lon="-75.94526">
        <ele>14.33364</ele>
        <time>2024-08-18T08:55:55.000Z</time>
      </trkpt>
      <trkpt lat="39.573372" lon="-75.944935">
        <ele>12.493174</ele>
        <time>2024-08-18T08:56:05.000Z</time>
      </trkpt>
      <trkpt lat="39.574898" lon="-75.944432">
        <ele>10.639105</ele>
        <time>2024-08-18T08:56:23.000Z</time>
      </trkpt>
      <trkpt lat="39.576708" lon="-75.943943">
        <ele>11.060607</ele>
        <time>2024-08-18T08:56:44.000Z</time>
      </trkpt>
      <trkpt lat="39.578523" lon="-75.943619">
        <ele>12.59989</ele>
        <time>2024-08-18T08:57:04.000Z</time>
      </trkpt>
      <trkpt lat="39.578889" lon="-75.943559">
        <ele>12.888995</ele>
        <time>2024-08-18T08:57:08.000Z</time>
      </trkpt>
      <trkpt lat="39.580191" lon="-75.94338">
        <ele>13.667979</ele>
        <time>2024-08-18T08:57:23.000Z</time>
      </trkpt>
      <trkpt lat="39.581328" lon="-75.943214">
        <ele>14.091065</ele>
        <time>2024-08-18T08:57:36.000Z</time>
      </trkpt>
      <trkpt lat="39.583281" lon="-75.942963">
        <ele>13.302898</ele>
        <time>2024-08-18T08:57:58.000Z</time>
      </trkpt>
      <trkpt lat="39.584573" lon="-75.942766">
        <ele>11.380831</ele>
        <time>2024-08-18T08:58:12.000Z</time>
      </trkpt>
      <trkpt lat="39.58533" lon="-75.942657">
        <ele>10.695478</ele>
        <time>2024-08-18T08:58:20.000Z</time>
      </trkpt>
      <trkpt lat="39.586079" lon="-75.942567">
        <ele>10.017502</ele>
        <time>2024-08-18T08:58:28.000Z</time>
      </trkpt>
      <trkpt lat="39.586407" lon="-75.942528">
        <ele>10.083866</ele>
        <time>2024-08-18T08:58:32.000Z</time>
      </trkpt>
      <trkpt lat="39.58804" lon="-75.942328">
        <ele>13.602326</ele>
        <time>2024-08-18T08:58:50.000Z</time>
      </trkpt>
      <trkpt lat="39.588982" lon="-75.942157">
        <ele>14.018261</ele>
        <time>2024-08-18T08:59:01.000Z</time>
      </trkpt>
      <trkpt lat="39.589389" lon="-75.942111">
        <ele>14.171774</ele>
        <time>2024-08-18T08:59:06.000Z</time>
      </trkpt>
      <trkpt lat="39.589529" lon="-75.942079">
        <ele>14.225902</ele>
        <time>2024-08-18T08:59:08.000Z</time>
      </trkpt>
      <trkpt lat="39.590222" lon="-75.941981">
        <ele>13.610306</ele>
        <time>2024-08-18T08:59:16.000Z</time>
      </trkpt>
      <trkpt lat="39.59035" lon="-75.941965">
        <ele>13.353703</ele>
        <time>2024-08-18T08:59:17.000Z</time>
      </trkpt>
      <trkpt lat="39.590633" lon="-75.941924">
        <ele>12.740474</ele>
        <time>2024-08-18T08:59:20.000Z</time>
      </trkpt>
      <trkpt lat="39.591534" lon="-75.941564">
        <ele>10.849942</ele>
        <time>2024-08-18T08:59:30.000Z</time>
      </trkpt>
      <trkpt lat="39.592147" lon="-75.941431">
        <ele>9.535772</ele>
        <time>2024-08-18T08:59:37.000Z</time>
      </trkpt>
      <trkpt lat="39.592196" lon="-75.941416">
        <ele>9.442742</ele>
        <time>2024-08-18T08:59:38.000Z</time>
      </trkpt>
      <trkpt lat="39.592481" lon="-75.94137">
        <ele>8.841443</ele>
        <time>2024-08-18T08:59:41.000Z</time>
      </trkpt>
      <trkpt lat="39.592941" lon="-75.941303">
        <ele>7.865015</ele>
        <time>2024-08-18T08:59:46.000Z</time>
      </trkpt>
      <trkpt lat="39.593233" lon="-75.941227">
        <ele>7.244119</ele>
        <time>2024-08-18T08:59:49.000Z</time>
      </trkpt>
      <trkpt lat="39.593451" lon="-75.941099">
        <ele>6.771404</ele>
        <time>2024-08-18T08:59:52.000Z</time>
      </trkpt>
      <trkpt lat="39.593606" lon="-75.941037">
        <ele>6.507093</ele>
        <time>2024-08-18T08:59:54.000Z</time>
      </trkpt>
      <trkpt lat="39.593639" lon="-75.941505">
        <ele>5.87572</ele>
        <time>2024-08-18T08:59:58.000Z</time>
      </trkpt>
      <trkpt lat="39.593824" lon="-75.943905">
        <ele>3.62562179737</ele>
        <time>2024-08-18T09:00:19.000Z</time>
      </trkpt>
      <trkpt lat="39.593877" lon="-75.944857">
        <ele>2.73520195004</ele>
        <time>2024-08-18T09:00:27.000Z</time>
      </trkpt>
      <trkpt lat="39.593951" lon="-75.945714">
        <ele>1.93071790204</ele>
        <time>2024-08-18T09:00:34.000Z</time>
      </trkpt>
      <trkpt lat="39.593938" lon="-75.945712">
        <ele>1.9148696016</ele>
        <time>2024-08-18T09:00:34.000Z</time>
      </trkpt>
    </trkseg>
  </trk>
</gpx>

<!--
Performance optimized by W3 Total Cache. Learn more: https://www.boldgrid.com/w3-total-cache/?utm_source=w3tc&utm_medium=footer_comment&utm_campaign=free_plugin

Page Caching using Disk: Enhanced{w3tc_pagecache_reject_reason} 

Served from: www.aquabike.world @ 2026-05-10 12:37:29 by W3 Total Cache
-->